sensor_id;sensor_type;location;lat;lon;timestamp;P1;durP1;ratioP1;P2;durP2;ratioP2
48596;SDS011;34382;43.160;24.148;2023-07-20T00:17:40;13.43;;;3.38;;
48596;SDS011;34382;43.160;24.148;2023-07-20T00:19:13;10.38;;;3.17;;
48596;SDS011;34382;43.160;24.148;2023-07-20T00:20:46;11.63;;;3.33;;
48596;SDS011;34382;43.160;24.148;2023-07-20T00:22:19;9.30;;;3.30;;
48596;SDS011;34382;43.160;24.148;2023-07-20T00:23:51;9.77;;;3.40;;
48596;SDS011;34382;43.160;24.148;2023-07-20T00:25:23;10.43;;;3.20;;
48596;SDS011;34382;43.160;24.148;2023-07-20T00:26:56;11.15;;;3.20;;
48596;SDS011;34382;43.160;24.148;2023-07-20T00:28:28;12.73;;;3.30;;
48596;SDS011;34382;43.160;24.148;2023-07-20T00:30:00;8.88;;;2.95;;
48596;SDS011;34382;43.160;24.148;2023-07-20T00:31:32;10.13;;;3.42;;
48596;SDS011;34382;43.160;24.148;2023-07-20T00:33:09;9.25;;;3.28;;
48596;SDS011;34382;43.160;24.148;2023-07-20T00:34:42;11.52;;;3.60;;
48596;SDS011;34382;43.160;24.148;2023-07-20T00:36:14;10.18;;;4.07;;
48596;SDS011;34382;43.160;24.148;2023-07-20T00:37:46;9.85;;;3.25;;
48596;SDS011;34382;43.160;24.148;2023-07-20T00:39:18;10.52;;;3.00;;
48596;SDS011;34382;43.160;24.148;2023-07-20T00:40:50;9.98;;;3.08;;
48596;SDS011;34382;43.160;24.148;2023-07-20T00:42:23;8.70;;;3.63;;
48596;SDS011;34382;43.160;24.148;2023-07-20T00:43:55;10.13;;;3.00;;
48596;SDS011;34382;43.160;24.148;2023-07-20T00:45:28;8.43;;;3.10;;
48596;SDS011;34382;43.160;24.148;2023-07-20T00:47:00;10.75;;;3.05;;
48596;SDS011;34382;43.160;24.148;2023-07-20T00:48:32;9.35;;;3.20;;
48596;SDS011;34382;43.160;24.148;2023-07-20T00:50:04;11.02;;;3.38;;
48596;SDS011;34382;43.160;24.148;2023-07-20T00:51:37;9.55;;;3.10;;
48596;SDS011;34382;43.160;24.148;2023-07-20T00:53:09;11.90;;;3.67;;
48596;SDS011;34382;43.160;24.148;2023-07-20T00:54:41;12.45;;;3.47;;
48596;SDS011;34382;43.160;24.148;2023-07-20T00:56:14;11.23;;;3.20;;
48596;SDS011;34382;43.160;24.148;2023-07-20T00:57:47;15.55;;;3.67;;
48596;SDS011;34382;43.160;24.148;2023-07-20T00:59:19;11.48;;;3.60;;
48596;SDS011;34382;43.160;24.148;2023-07-20T01:00:51;8.48;;;3.42;;
48596;SDS011;34382;43.160;24.148;2023-07-20T01:02:24;7.95;;;3.28;;
48596;SDS011;34382;43.160;24.148;2023-07-20T01:03:56;8.40;;;2.85;;
48596;SDS011;34382;43.160;24.148;2023-07-20T01:09:48;12.73;;;3.10;;
48596;SDS011;34382;43.160;24.148;2023-07-20T01:13:21;11.07;;;3.33;;
48596;SDS011;34382;43.160;24.148;2023-07-20T01:14:54;11.02;;;3.40;;
48596;SDS011;34382;43.160;24.148;2023-07-20T01:16:27;11.73;;;3.13;;
48596;SDS011;34382;43.160;24.148;2023-07-20T01:17:59;9.77;;;3.17;;
48596;SDS011;34382;43.160;24.148;2023-07-20T01:19:33;11.10;;;3.70;;
48596;SDS011;34382;43.160;24.148;2023-07-20T01:21:09;8.65;;;3.10;;
48596;SDS011;34382;43.160;24.148;2023-07-20T01:26:27;10.70;;;3.30;;
48596;SDS011;34382;43.160;24.148;2023-07-20T01:30:08;11.52;;;3.35;;
48596;SDS011;34382;43.160;24.148;2023-07-20T01:32:02;9.23;;;3.58;;
48596;SDS011;34382;43.160;24.148;2023-07-20T01:33:35;13.38;;;3.55;;
48596;SDS011;34382;43.160;24.148;2023-07-20T01:35:07;13.30;;;3.60;;
48596;SDS011;34382;43.160;24.148;2023-07-20T01:36:41;11.45;;;3.40;;
48596;SDS011;34382;43.160;24.148;2023-07-20T01:39:47;11.80;;;3.65;;
48596;SDS011;34382;43.160;24.148;2023-07-20T01:41:19;10.75;;;3.35;;
48596;SDS011;34382;43.160;24.148;2023-07-20T01:42:51;9.65;;;3.25;;
48596;SDS011;34382;43.160;24.148;2023-07-20T01:44:24;9.55;;;3.85;;
48596;SDS011;34382;43.160;24.148;2023-07-20T01:45:56;10.32;;;3.75;;
48596;SDS011;34382;43.160;24.148;2023-07-20T01:47:29;9.82;;;3.35;;
48596;SDS011;34382;43.160;24.148;2023-07-20T01:49:01;10.40;;;3.23;;
48596;SDS011;34382;43.160;24.148;2023-07-20T01:50:34;11.23;;;3.70;;
48596;SDS011;34382;43.160;24.148;2023-07-20T01:52:06;10.33;;;3.30;;
48596;SDS011;34382;43.160;24.148;2023-07-20T01:53:38;9.77;;;3.08;;
48596;SDS011;34382;43.160;24.148;2023-07-20T01:55:11;9.35;;;3.30;;
48596;SDS011;34382;43.160;24.148;2023-07-20T01:56:43;10.13;;;3.97;;
48596;SDS011;34382;43.160;24.148;2023-07-20T01:58:15;11.23;;;3.60;;
48596;SDS011;34382;43.160;24.148;2023-07-20T01:59:47;10.32;;;3.20;;
48596;SDS011;34382;43.160;24.148;2023-07-20T02:01:19;9.02;;;3.47;;
48596;SDS011;34382;43.160;24.148;2023-07-20T02:02:52;8.20;;;3.55;;
48596;SDS011;34382;43.160;24.148;2023-07-20T02:04:24;10.40;;;3.83;;
48596;SDS011;34382;43.160;24.148;2023-07-20T02:05:56;11.98;;;4.03;;
48596;SDS011;34382;43.160;24.148;2023-07-20T02:07:31;10.27;;;3.65;;
48596;SDS011;34382;43.160;24.148;2023-07-20T02:09:03;10.63;;;3.47;;
48596;SDS011;34382;43.160;24.148;2023-07-20T02:10:35;8.88;;;3.88;;
48596;SDS011;34382;43.160;24.148;2023-07-20T02:12:08;9.98;;;3.40;;
48596;SDS011;34382;43.160;24.148;2023-07-20T02:13:40;9.38;;;3.55;;
48596;SDS011;34382;43.160;24.148;2023-07-20T02:15:13;9.70;;;3.20;;
48596;SDS011;34382;43.160;24.148;2023-07-20T02:16:48;9.48;;;3.30;;
48596;SDS011;34382;43.160;24.148;2023-07-20T02:18:23;10.15;;;3.50;;
48596;SDS011;34382;43.160;24.148;2023-07-20T02:19:56;9.40;;;3.30;;
48596;SDS011;34382;43.160;24.148;2023-07-20T02:21:31;12.30;;;3.53;;
48596;SDS011;34382;43.160;24.148;2023-07-20T02:23:03;11.35;;;3.88;;
48596;SDS011;34382;43.160;24.148;2023-07-20T02:24:36;10.07;;;3.45;;
48596;SDS011;34382;43.160;24.148;2023-07-20T02:26:08;12.93;;;3.85;;
48596;SDS011;34382;43.160;24.148;2023-07-20T02:27:40;8.82;;;3.65;;
48596;SDS011;34382;43.160;24.148;2023-07-20T02:29:12;11.90;;;3.67;;
48596;SDS011;34382;43.160;24.148;2023-07-20T02:30:44;12.85;;;3.40;;
48596;SDS011;34382;43.160;24.148;2023-07-20T02:33:50;9.80;;;3.40;;
48596;SDS011;34382;43.160;24.148;2023-07-20T02:35:22;11.68;;;3.80;;
48596;SDS011;34382;43.160;24.148;2023-07-20T02:36:54;8.82;;;3.55;;
48596;SDS011;34382;43.160;24.148;2023-07-20T02:38:30;9.52;;;3.78;;
48596;SDS011;34382;43.160;24.148;2023-07-20T02:40:02;10.18;;;3.92;;
48596;SDS011;34382;43.160;24.148;2023-07-20T02:41:39;10.98;;;3.78;;
48596;SDS011;34382;43.160;24.148;2023-07-20T02:43:11;10.50;;;3.75;;
48596;SDS011;34382;43.160;24.148;2023-07-20T02:44:43;13.10;;;3.92;;
48596;SDS011;34382;43.160;24.148;2023-07-20T02:46:15;12.50;;;3.40;;
48596;SDS011;34382;43.160;24.148;2023-07-20T02:47:47;9.45;;;3.80;;
48596;SDS011;34382;43.160;24.148;2023-07-20T02:49:19;11.20;;;3.40;;
48596;SDS011;34382;43.160;24.148;2023-07-20T02:50:52;8.95;;;3.35;;
48596;SDS011;34382;43.160;24.148;2023-07-20T02:52:24;10.77;;;3.38;;
48596;SDS011;34382;43.160;24.148;2023-07-20T02:53:56;9.00;;;3.75;;
48596;SDS011;34382;43.160;24.148;2023-07-20T02:55:28;9.50;;;4.03;;
48596;SDS011;34382;43.160;24.148;2023-07-20T02:57:00;10.88;;;3.47;;
48596;SDS011;34382;43.160;24.148;2023-07-20T02:58:33;9.43;;;3.77;;
48596;SDS011;34382;43.160;24.148;2023-07-20T03:00:08;9.45;;;3.50;;
48596;SDS011;34382;43.160;24.148;2023-07-20T03:01:41;8.90;;;3.50;;
48596;SDS011;34382;43.160;24.148;2023-07-20T03:03:16;10.55;;;3.85;;
48596;SDS011;34382;43.160;24.148;2023-07-20T03:04:51;12.77;;;3.60;;
48596;SDS011;34382;43.160;24.148;2023-07-20T03:06:23;10.55;;;3.85;;
48596;SDS011;34382;43.160;24.148;2023-07-20T03:07:56;9.45;;;3.50;;
48596;SDS011;34382;43.160;24.148;2023-07-20T03:09:28;9.88;;;3.28;;
48596;SDS011;34382;43.160;24.148;2023-07-20T03:11:00;9.13;;;3.60;;
48596;SDS011;34382;43.160;24.148;2023-07-20T03:12:33;11.93;;;3.70;;
48596;SDS011;34382;43.160;24.148;2023-07-20T03:14:05;14.57;;;3.88;;
48596;SDS011;34382;43.160;24.148;2023-07-20T03:15:38;13.73;;;4.53;;
48596;SDS011;34382;43.160;24.148;2023-07-20T03:17:10;13.38;;;4.68;;
48596;SDS011;34382;43.160;24.148;2023-07-20T03:18:42;12.45;;;4.35;;
48596;SDS011;34382;43.160;24.148;2023-07-20T03:20:14;14.73;;;4.00;;
48596;SDS011;34382;43.160;24.148;2023-07-20T03:21:47;12.57;;;3.80;;
48596;SDS011;34382;43.160;24.148;2023-07-20T03:23:22;11.27;;;3.50;;
48596;SDS011;34382;43.160;24.148;2023-07-20T03:24:54;9.85;;;3.35;;
48596;SDS011;34382;43.160;24.148;2023-07-20T03:26:27;11.25;;;3.55;;
48596;SDS011;34382;43.160;24.148;2023-07-20T03:27:59;10.27;;;3.90;;
48596;SDS011;34382;43.160;24.148;2023-07-20T03:29:31;14.70;;;3.95;;
48596;SDS011;34382;43.160;24.148;2023-07-20T03:31:04;10.45;;;3.50;;
48596;SDS011;34382;43.160;24.148;2023-07-20T03:32:37;12.30;;;3.47;;
48596;SDS011;34382;43.160;24.148;2023-07-20T03:34:10;11.57;;;3.30;;
48596;SDS011;34382;43.160;24.148;2023-07-20T03:35:45;9.32;;;3.85;;
48596;SDS011;34382;43.160;24.148;2023-07-20T03:37:17;10.68;;;4.22;;
48596;SDS011;34382;43.160;24.148;2023-07-20T03:38:49;10.32;;;3.70;;
48596;SDS011;34382;43.160;24.148;2023-07-20T03:40:22;11.23;;;4.13;;
48596;SDS011;34382;43.160;24.148;2023-07-20T03:41:54;10.60;;;3.67;;
48596;SDS011;34382;43.160;24.148;2023-07-20T03:43:27;11.88;;;4.10;;
48596;SDS011;34382;43.160;24.148;2023-07-20T03:45:00;9.20;;;3.78;;
48596;SDS011;34382;43.160;24.148;2023-07-20T03:46:32;11.60;;;3.70;;
48596;SDS011;34382;43.160;24.148;2023-07-20T03:48:05;8.73;;;3.85;;
48596;SDS011;34382;43.160;24.148;2023-07-20T03:49:38;9.98;;;3.80;;
48596;SDS011;34382;43.160;24.148;2023-07-20T03:51:10;9.18;;;3.42;;
48596;SDS011;34382;43.160;24.148;2023-07-20T03:52:42;9.60;;;3.50;;
48596;SDS011;34382;43.160;24.148;2023-07-20T03:54:14;9.65;;;3.90;;
48596;SDS011;34382;43.160;24.148;2023-07-20T03:55:47;10.13;;;3.60;;
48596;SDS011;34382;43.160;24.148;2023-07-20T03:57:20;8.38;;;3.80;;
48596;SDS011;34382;43.160;24.148;2023-07-20T03:58:54;11.30;;;4.18;;
48596;SDS011;34382;43.160;24.148;2023-07-20T04:00:26;10.02;;;3.92;;
48596;SDS011;34382;43.160;24.148;2023-07-20T04:01:59;11.00;;;3.65;;
48596;SDS011;34382;43.160;24.148;2023-07-20T04:03:31;10.10;;;3.83;;
48596;SDS011;34382;43.160;24.148;2023-07-20T04:05:06;11.13;;;4.03;;
48596;SDS011;34382;43.160;24.148;2023-07-20T04:06:38;9.65;;;3.60;;
48596;SDS011;34382;43.160;24.148;2023-07-20T04:08:11;10.80;;;4.10;;
48596;SDS011;34382;43.160;24.148;2023-07-20T04:09:43;9.95;;;3.97;;
48596;SDS011;34382;43.160;24.148;2023-07-20T04:11:15;10.68;;;4.13;;
48596;SDS011;34382;43.160;24.148;2023-07-20T04:12:48;12.52;;;4.15;;
48596;SDS011;34382;43.160;24.148;2023-07-20T04:14:20;12.50;;;4.20;;
48596;SDS011;34382;43.160;24.148;2023-07-20T04:15:52;9.15;;;3.58;;
48596;SDS011;34382;43.160;24.148;2023-07-20T04:17:24;12.18;;;3.97;;
48596;SDS011;34382;43.160;24.148;2023-07-20T04:18:57;11.73;;;4.35;;
48596;SDS011;34382;43.160;24.148;2023-07-20T04:20:29;12.77;;;3.90;;
48596;SDS011;34382;43.160;24.148;2023-07-20T04:22:01;11.52;;;4.60;;
48596;SDS011;34382;43.160;24.148;2023-07-20T04:23:34;10.88;;;3.80;;
48596;SDS011;34382;43.160;24.148;2023-07-20T04:25:08;10.35;;;4.15;;
48596;SDS011;34382;43.160;24.148;2023-07-20T04:26:40;9.07;;;3.53;;
48596;SDS011;34382;43.160;24.148;2023-07-20T04:28:13;10.65;;;4.38;;
48596;SDS011;34382;43.160;24.148;2023-07-20T04:29:45;11.93;;;4.50;;
48596;SDS011;34382;43.160;24.148;2023-07-20T04:31:17;9.48;;;4.05;;
48596;SDS011;34382;43.160;24.148;2023-07-20T04:32:49;8.93;;;3.70;;
48596;SDS011;34382;43.160;24.148;2023-07-20T04:34:22;10.50;;;4.45;;
48596;SDS011;34382;43.160;24.148;2023-07-20T04:35:54;8.75;;;4.18;;
48596;SDS011;34382;43.160;24.148;2023-07-20T04:37:26;10.90;;;3.83;;
48596;SDS011;34382;43.160;24.148;2023-07-20T04:38:58;10.65;;;4.03;;
48596;SDS011;34382;43.160;24.148;2023-07-20T04:40:30;9.18;;;4.50;;
48596;SDS011;34382;43.160;24.148;2023-07-20T04:42:03;11.52;;;4.40;;
48596;SDS011;34382;43.160;24.148;2023-07-20T04:43:35;12.25;;;4.32;;
48596;SDS011;34382;43.160;24.148;2023-07-20T04:45:07;10.07;;;4.28;;
48596;SDS011;34382;43.160;24.148;2023-07-20T04:46:40;10.55;;;4.07;;
48596;SDS011;34382;43.160;24.148;2023-07-20T04:48:17;10.68;;;3.97;;
48596;SDS011;34382;43.160;24.148;2023-07-20T04:49:49;12.17;;;4.07;;
48596;SDS011;34382;43.160;24.148;2023-07-20T04:51:21;11.07;;;4.28;;
48596;SDS011;34382;43.160;24.148;2023-07-20T04:52:54;10.73;;;3.85;;
48596;SDS011;34382;43.160;24.148;2023-07-20T04:54:26;10.68;;;3.92;;
48596;SDS011;34382;43.160;24.148;2023-07-20T04:55:58;9.77;;;4.22;;
48596;SDS011;34382;43.160;24.148;2023-07-20T04:57:31;9.73;;;3.70;;
48596;SDS011;34382;43.160;24.148;2023-07-20T04:59:03;11.02;;;3.80;;
48596;SDS011;34382;43.160;24.148;2023-07-20T05:00:37;9.85;;;4.93;;
48596;SDS011;34382;43.160;24.148;2023-07-20T05:02:10;9.32;;;4.18;;
48596;SDS011;34382;43.160;24.148;2023-07-20T05:03:42;10.63;;;4.63;;
48596;SDS011;34382;43.160;24.148;2023-07-20T05:05:15;14.88;;;4.70;;
48596;SDS011;34382;43.160;24.148;2023-07-20T05:06:50;11.32;;;4.38;;
48596;SDS011;34382;43.160;24.148;2023-07-20T05:08:22;9.45;;;4.13;;
48596;SDS011;34382;43.160;24.148;2023-07-20T05:09:54;11.33;;;4.37;;
48596;SDS011;34382;43.160;24.148;2023-07-20T05:11:29;11.52;;;3.90;;
48596;SDS011;34382;43.160;24.148;2023-07-20T05:13:02;10.77;;;4.60;;
48596;SDS011;34382;43.160;24.148;2023-07-20T05:14:34;12.18;;;4.47;;
48596;SDS011;34382;43.160;24.148;2023-07-20T05:16:06;10.80;;;4.38;;
48596;SDS011;34382;43.160;24.148;2023-07-20T05:17:39;10.73;;;4.30;;
48596;SDS011;34382;43.160;24.148;2023-07-20T05:19:11;9.52;;;4.22;;
48596;SDS011;34382;43.160;24.148;2023-07-20T05:20:45;10.40;;;4.45;;
48596;SDS011;34382;43.160;24.148;2023-07-20T05:22:18;10.52;;;4.40;;
48596;SDS011;34382;43.160;24.148;2023-07-20T05:23:50;10.10;;;4.20;;
48596;SDS011;34382;43.160;24.148;2023-07-20T05:25:22;10.03;;;4.13;;
48596;SDS011;34382;43.160;24.148;2023-07-20T05:26:54;18.80;;;6.47;;
48596;SDS011;34382;43.160;24.148;2023-07-20T05:28:27;12.30;;;4.25;;
48596;SDS011;34382;43.160;24.148;2023-07-20T05:29:59;11.15;;;4.65;;
48596;SDS011;34382;43.160;24.148;2023-07-20T05:31:31;11.88;;;4.57;;
48596;SDS011;34382;43.160;24.148;2023-07-20T05:33:03;9.98;;;4.45;;
48596;SDS011;34382;43.160;24.148;2023-07-20T05:34:36;12.20;;;4.07;;
48596;SDS011;34382;43.160;24.148;2023-07-20T05:36:08;13.35;;;4.45;;
48596;SDS011;34382;43.160;24.148;2023-07-20T05:37:55;9.98;;;3.85;;
48596;SDS011;34382;43.160;24.148;2023-07-20T05:39:27;11.68;;;4.20;;
48596;SDS011;34382;43.160;24.148;2023-07-20T05:41:00;13.55;;;4.20;;
48596;SDS011;34382;43.160;24.148;2023-07-20T05:42:33;9.70;;;4.18;;
48596;SDS011;34382;43.160;24.148;2023-07-20T05:44:05;11.43;;;4.30;;
48596;SDS011;34382;43.160;24.148;2023-07-20T05:45:41;10.30;;;3.97;;
48596;SDS011;34382;43.160;24.148;2023-07-20T05:47:13;10.90;;;4.40;;
48596;SDS011;34382;43.160;24.148;2023-07-20T05:48:46;9.17;;;4.07;;
48596;SDS011;34382;43.160;24.148;2023-07-20T05:50:18;11.77;;;4.40;;
48596;SDS011;34382;43.160;24.148;2023-07-20T05:51:50;9.60;;;4.18;;
48596;SDS011;34382;43.160;24.148;2023-07-20T05:53:22;10.50;;;4.07;;
48596;SDS011;34382;43.160;24.148;2023-07-20T05:54:54;9.50;;;4.00;;
48596;SDS011;34382;43.160;24.148;2023-07-20T05:56:26;10.83;;;4.00;;
48596;SDS011;34382;43.160;24.148;2023-07-20T05:57:59;11.60;;;4.28;;
48596;SDS011;34382;43.160;24.148;2023-07-20T05:59:31;10.65;;;4.32;;
48596;SDS011;34382;43.160;24.148;2023-07-20T06:01:03;9.33;;;4.30;;
48596;SDS011;34382;43.160;24.148;2023-07-20T06:02:50;11.30;;;3.90;;
48596;SDS011;34382;43.160;24.148;2023-07-20T06:04:24;9.18;;;4.25;;
48596;SDS011;34382;43.160;24.148;2023-07-20T06:05:59;12.47;;;4.20;;
48596;SDS011;34382;43.160;24.148;2023-07-20T06:07:33;10.48;;;3.70;;
48596;SDS011;34382;43.160;24.148;2023-07-20T06:09:05;11.68;;;4.47;;
48596;SDS011;34382;43.160;24.148;2023-07-20T06:10:41;11.05;;;4.00;;
48596;SDS011;34382;43.160;24.148;2023-07-20T06:12:16;8.63;;;3.83;;
48596;SDS011;34382;43.160;24.148;2023-07-20T06:13:48;10.95;;;4.32;;
48596;SDS011;34382;43.160;24.148;2023-07-20T06:15:33;10.30;;;4.10;;
48596;SDS011;34382;43.160;24.148;2023-07-20T06:17:10;12.00;;;4.40;;
48596;SDS011;34382;43.160;24.148;2023-07-20T06:18:42;10.43;;;4.05;;
48596;SDS011;34382;43.160;24.148;2023-07-20T06:20:14;10.68;;;4.50;;
48596;SDS011;34382;43.160;24.148;2023-07-20T06:21:46;9.73;;;4.20;;
48596;SDS011;34382;43.160;24.148;2023-07-20T06:23:19;10.87;;;4.00;;
48596;SDS011;34382;43.160;24.148;2023-07-20T06:24:51;11.55;;;4.35;;
48596;SDS011;34382;43.160;24.148;2023-07-20T06:26:23;9.13;;;4.13;;
48596;SDS011;34382;43.160;24.148;2023-07-20T06:27:56;8.60;;;3.80;;
48596;SDS011;34382;43.160;24.148;2023-07-20T06:29:31;9.95;;;3.85;;
48596;SDS011;34382;43.160;24.148;2023-07-20T06:31:03;9.20;;;3.60;;
48596;SDS011;34382;43.160;24.148;2023-07-20T06:32:35;9.77;;;3.85;;
48596;SDS011;34382;43.160;24.148;2023-07-20T06:34:07;12.07;;;3.88;;
48596;SDS011;34382;43.160;24.148;2023-07-20T06:35:46;10.50;;;3.93;;
48596;SDS011;34382;43.160;24.148;2023-07-20T06:37:35;9.70;;;4.10;;
48596;SDS011;34382;43.160;24.148;2023-07-20T06:39:08;10.02;;;4.20;;
48596;SDS011;34382;43.160;24.148;2023-07-20T06:40:42;15.40;;;3.78;;
48596;SDS011;34382;43.160;24.148;2023-07-20T06:42:15;10.32;;;3.80;;
48596;SDS011;34382;43.160;24.148;2023-07-20T06:43:47;8.85;;;3.88;;
48596;SDS011;34382;43.160;24.148;2023-07-20T06:45:20;10.38;;;4.40;;
48596;SDS011;34382;43.160;24.148;2023-07-20T06:46:52;9.63;;;3.63;;
48596;SDS011;34382;43.160;24.148;2023-07-20T06:48:24;9.93;;;3.80;;
48596;SDS011;34382;43.160;24.148;2023-07-20T06:49:56;11.65;;;4.75;;
48596;SDS011;34382;43.160;24.148;2023-07-20T06:51:28;11.38;;;3.75;;
48596;SDS011;34382;43.160;24.148;2023-07-20T06:53:00;9.83;;;3.47;;
48596;SDS011;34382;43.160;24.148;2023-07-20T06:54:35;10.15;;;3.53;;
48596;SDS011;34382;43.160;24.148;2023-07-20T06:56:17;8.52;;;3.50;;
48596;SDS011;34382;43.160;24.148;2023-07-20T06:57:53;11.45;;;4.53;;
48596;SDS011;34382;43.160;24.148;2023-07-20T06:59:29;10.05;;;3.38;;
48596;SDS011;34382;43.160;24.148;2023-07-20T07:01:05;11.50;;;3.53;;
48596;SDS011;34382;43.160;24.148;2023-07-20T07:02:38;8.52;;;3.55;;
48596;SDS011;34382;43.160;24.148;2023-07-20T07:04:11;9.05;;;3.92;;
48596;SDS011;34382;43.160;24.148;2023-07-20T07:05:44;9.70;;;3.75;;
48596;SDS011;34382;43.160;24.148;2023-07-20T07:07:21;11.93;;;3.92;;
48596;SDS011;34382;43.160;24.148;2023-07-20T07:08:56;8.27;;;3.83;;
48596;SDS011;34382;43.160;24.148;2023-07-20T07:10:29;9.55;;;4.18;;
48596;SDS011;34382;43.160;24.148;2023-07-20T07:12:01;10.40;;;3.72;;
48596;SDS011;34382;43.160;24.148;2023-07-20T07:13:33;8.00;;;3.10;;
48596;SDS011;34382;43.160;24.148;2023-07-20T07:15:06;9.25;;;3.88;;
48596;SDS011;34382;43.160;24.148;2023-07-20T07:18:11;11.82;;;3.72;;
48596;SDS011;34382;43.160;24.148;2023-07-20T07:19:43;10.05;;;3.80;;
48596;SDS011;34382;43.160;24.148;2023-07-20T07:21:19;17.63;;;3.97;;
48596;SDS011;34382;43.160;24.148;2023-07-20T07:24:25;10.00;;;3.25;;
48596;SDS011;34382;43.160;24.148;2023-07-20T07:25:57;8.50;;;3.28;;
48596;SDS011;34382;43.160;24.148;2023-07-20T07:27:29;10.48;;;3.40;;
48596;SDS011;34382;43.160;24.148;2023-07-20T07:29:02;9.95;;;3.40;;
48596;SDS011;34382;43.160;24.148;2023-07-20T07:30:34;8.98;;;3.10;;
48596;SDS011;34382;43.160;24.148;2023-07-20T07:32:06;9.43;;;3.40;;
48596;SDS011;34382;43.160;24.148;2023-07-20T07:33:39;10.63;;;3.50;;
48596;SDS011;34382;43.160;24.148;2023-07-20T07:35:11;17.20;;;5.40;;
48596;SDS011;34382;43.160;24.148;2023-07-20T07:36:44;7.88;;;3.10;;
48596;SDS011;34382;43.160;24.148;2023-07-20T07:38:16;7.03;;;3.08;;
48596;SDS011;34382;43.160;24.148;2023-07-20T07:40:09;8.98;;;3.35;;
48596;SDS011;34382;43.160;24.148;2023-07-20T07:41:42;9.70;;;3.42;;
48596;SDS011;34382;43.160;24.148;2023-07-20T07:43:14;7.78;;;2.83;;
48596;SDS011;34382;43.160;24.148;2023-07-20T07:44:46;9.20;;;3.10;;
48596;SDS011;34382;43.160;24.148;2023-07-20T07:46:18;7.27;;;2.70;;
48596;SDS011;34382;43.160;24.148;2023-07-20T07:47:51;7.72;;;2.58;;
48596;SDS011;34382;43.160;24.148;2023-07-20T07:49:23;11.25;;;3.17;;
48596;SDS011;34382;43.160;24.148;2023-07-20T07:50:55;9.32;;;3.10;;
48596;SDS011;34382;43.160;24.148;2023-07-20T07:52:27;9.43;;;3.00;;
48596;SDS011;34382;43.160;24.148;2023-07-20T07:54:00;7.35;;;2.38;;
48596;SDS011;34382;43.160;24.148;2023-07-20T07:55:32;6.35;;;2.10;;
48596;SDS011;34382;43.160;24.148;2023-07-20T07:57:04;6.97;;;2.40;;
48596;SDS011;34382;43.160;24.148;2023-07-20T07:58:37;8.00;;;2.30;;
48596;SDS011;34382;43.160;24.148;2023-07-20T08:00:09;6.03;;;2.28;;
48596;SDS011;34382;43.160;24.148;2023-07-20T08:01:46;5.72;;;2.20;;
48596;SDS011;34382;43.160;24.148;2023-07-20T08:03:18;5.18;;;2.20;;
48596;SDS011;34382;43.160;24.148;2023-07-20T08:04:50;6.10;;;2.40;;
48596;SDS011;34382;43.160;24.148;2023-07-20T08:06:24;6.72;;;2.42;;
48596;SDS011;34382;43.160;24.148;2023-07-20T08:09:29;7.28;;;2.58;;
48596;SDS011;34382;43.160;24.148;2023-07-20T08:11:02;8.48;;;2.60;;
48596;SDS011;34382;43.160;24.148;2023-07-20T08:12:38;5.32;;;2.63;;
48596;SDS011;34382;43.160;24.148;2023-07-20T08:14:10;7.17;;;3.43;;
48596;SDS011;34382;43.160;24.148;2023-07-20T08:15:46;6.50;;;2.97;;
48596;SDS011;34382;43.160;24.148;2023-07-20T08:17:23;7.95;;;3.00;;
48596;SDS011;34382;43.160;24.148;2023-07-20T08:18:56;7.88;;;3.72;;
48596;SDS011;34382;43.160;24.148;2023-07-20T08:20:28;7.50;;;3.05;;
48596;SDS011;34382;43.160;24.148;2023-07-20T08:22:00;7.93;;;3.17;;
48596;SDS011;34382;43.160;24.148;2023-07-20T08:23:33;6.73;;;2.90;;
48596;SDS011;34382;43.160;24.148;2023-07-20T08:25:05;7.43;;;3.15;;
48596;SDS011;34382;43.160;24.148;2023-07-20T08:26:38;8.70;;;2.90;;
48596;SDS011;34382;43.160;24.148;2023-07-20T08:28:11;6.17;;;2.50;;
48596;SDS011;34382;43.160;24.148;2023-07-20T08:29:44;6.38;;;2.28;;
48596;SDS011;34382;43.160;24.148;2023-07-20T08:31:16;7.93;;;2.60;;
48596;SDS011;34382;43.160;24.148;2023-07-20T08:32:49;9.65;;;2.90;;
48596;SDS011;34382;43.160;24.148;2023-07-20T08:34:21;8.43;;;2.90;;
48596;SDS011;34382;43.160;24.148;2023-07-20T08:36:01;7.47;;;2.90;;
48596;SDS011;34382;43.160;24.148;2023-07-20T08:37:35;13.18;;;6.75;;
48596;SDS011;34382;43.160;24.148;2023-07-20T08:40:44;8.27;;;2.97;;
48596;SDS011;34382;43.160;24.148;2023-07-20T08:42:17;11.40;;;5.90;;
48596;SDS011;34382;43.160;24.148;2023-07-20T08:43:50;12.63;;;5.67;;
48596;SDS011;34382;43.160;24.148;2023-07-20T08:46:55;6.90;;;2.97;;
48596;SDS011;34382;43.160;24.148;2023-07-20T08:48:27;9.90;;;3.20;;
48596;SDS011;34382;43.160;24.148;2023-07-20T08:50:00;7.25;;;2.80;;
48596;SDS011;34382;43.160;24.148;2023-07-20T08:53:05;6.57;;;2.83;;
48596;SDS011;34382;43.160;24.148;2023-07-20T08:54:38;7.38;;;3.17;;
48596;SDS011;34382;43.160;24.148;2023-07-20T08:56:11;6.78;;;2.53;;
48596;SDS011;34382;43.160;24.148;2023-07-20T08:57:43;6.03;;;2.80;;
48596;SDS011;34382;43.160;24.148;2023-07-20T08:59:17;7.03;;;2.78;;
48596;SDS011;34382;43.160;24.148;2023-07-20T09:00:50;6.38;;;2.53;;
48596;SDS011;34382;43.160;24.148;2023-07-20T09:02:23;9.43;;;2.90;;
48596;SDS011;34382;43.160;24.148;2023-07-20T09:03:57;7.68;;;3.05;;
48596;SDS011;34382;43.160;24.148;2023-07-20T09:05:29;8.20;;;3.00;;
48596;SDS011;34382;43.160;24.148;2023-07-20T09:07:03;6.50;;;2.65;;
48596;SDS011;34382;43.160;24.148;2023-07-20T09:08:39;8.23;;;2.80;;
48596;SDS011;34382;43.160;24.148;2023-07-20T09:10:12;5.45;;;2.40;;
48596;SDS011;34382;43.160;24.148;2023-07-20T09:11:51;8.25;;;3.13;;
48596;SDS011;34382;43.160;24.148;2023-07-20T09:13:25;7.97;;;2.60;;
48596;SDS011;34382;43.160;24.148;2023-07-20T09:14:59;6.25;;;2.50;;
48596;SDS011;34382;43.160;24.148;2023-07-20T09:16:31;6.15;;;2.40;;
48596;SDS011;34382;43.160;24.148;2023-07-20T09:18:04;6.22;;;2.45;;
48596;SDS011;34382;43.160;24.148;2023-07-20T09:19:36;7.43;;;2.53;;
48596;SDS011;34382;43.160;24.148;2023-07-20T09:21:08;6.55;;;2.42;;
48596;SDS011;34382;43.160;24.148;2023-07-20T09:22:40;7.23;;;2.07;;
48596;SDS011;34382;43.160;24.148;2023-07-20T09:25:48;7.93;;;2.45;;
48596;SDS011;34382;43.160;24.148;2023-07-20T09:27:22;6.85;;;2.70;;
48596;SDS011;34382;43.160;24.148;2023-07-20T09:28:54;6.05;;;2.30;;
48596;SDS011;34382;43.160;24.148;2023-07-20T09:30:27;7.85;;;2.50;;
48596;SDS011;34382;43.160;24.148;2023-07-20T09:32:03;6.50;;;2.45;;
48596;SDS011;34382;43.160;24.148;2023-07-20T09:35:28;5.82;;;2.22;;
48596;SDS011;34382;43.160;24.148;2023-07-20T09:37:13;5.45;;;2.17;;
48596;SDS011;34382;43.160;24.148;2023-07-20T09:38:45;6.77;;;2.33;;
48596;SDS011;34382;43.160;24.148;2023-07-20T09:40:20;6.72;;;2.15;;
48596;SDS011;34382;43.160;24.148;2023-07-20T09:41:53;6.88;;;2.10;;
48596;SDS011;34382;43.160;24.148;2023-07-20T09:43:45;7.40;;;2.28;;
48596;SDS011;34382;43.160;24.148;2023-07-20T09:45:17;9.02;;;2.60;;
48596;SDS011;34382;43.160;24.148;2023-07-20T09:46:50;7.88;;;2.53;;
48596;SDS011;34382;43.160;24.148;2023-07-20T09:48:25;7.53;;;2.45;;
48596;SDS011;34382;43.160;24.148;2023-07-20T09:50:01;7.32;;;2.63;;
48596;SDS011;34382;43.160;24.148;2023-07-20T09:51:36;7.60;;;2.10;;
48596;SDS011;34382;43.160;24.148;2023-07-20T09:53:12;6.53;;;2.22;;
48596;SDS011;34382;43.160;24.148;2023-07-20T09:54:47;7.78;;;2.40;;